Time;durP1;ratioP1;P1;durP2;ratioP2;P2;SDS_P1;SDS_P2;PMS_P1;PMS_P2;Temp;Humidity;BMP_temperature;BMP_pressure;BME280_temperature;BME280_humidity;BME280_pressure;Samples;Min_cycle;Max_cycle;Signal;HPM_P1;HPM_P2
2022/07/03 00:01:52;;;;;;;3.53;3.22;;;18.60;99.90;;;;;;4990420;28;20207;-66
2022/07/03 00:04:20;;;;;;;4.83;3.53;;;18.50;99.90;;;;;;4987110;28;20191;-66
2022/07/03 00:06:46;;;;;;;3.20;2.92;;;18.50;99.90;;;;;;4989087;28;20180;-66
2022/07/03 00:09:12;;;;;;;3.53;3.33;;;18.50;99.90;;;;;;4983125;28;20214;-66
2022/07/03 00:11:38;;;;;;;3.85;3.55;;;18.50;99.90;;;;;;4990777;28;20226;-66
2022/07/03 00:14:04;;;;;;;2.57;2.37;;;18.40;99.90;;;;;;4983863;28;20191;-66
2022/07/03 00:16:30;;;;;;;3.38;2.83;;;18.50;99.90;;;;;;4986212;28;20219;-66
2022/07/03 00:18:56;;;;;;;3.40;3.10;;;18.40;99.90;;;;;;4985832;28;20608;-66
2022/07/03 00:21:29;;;;;;;3.60;3.30;;;18.40;99.90;;;;;;4990557;28;21013;-66
2022/07/03 00:24:08;;;;;;;3.13;2.92;;;18.30;99.90;;;;;;4985961;28;20207;-66
2022/07/03 00:26:38;;;;;;;3.00;2.65;;;18.20;99.90;;;;;;4991854;28;20195;-66
2022/07/03 00:29:06;;;;;;;3.17;2.90;;;18.30;99.90;;;;;;4987894;28;20242;-66
2022/07/03 00:31:32;;;;;;;3.40;3.10;;;18.20;99.90;;;;;;4994606;28;20215;-66
2022/07/03 00:34:00;;;;;;;4.05;3.75;;;18.50;99.90;;;;;;4992549;28;20267;-66
2022/07/03 00:36:33;;;;;;;3.70;3.40;;;18.10;99.90;;;;;;4994024;28;20215;-66
2022/07/03 00:38:59;;;;;;;4.03;3.72;;;18.20;99.90;;;;;;4992381;28;20197;-66
2022/07/03 00:41:30;;;;;;;3.20;2.90;;;18.10;99.90;;;;;;4985720;28;20873;-66
2022/07/03 00:43:57;;;;;;;3.45;3.15;;;18.10;99.90;;;;;;4992196;28;20633;-66
2022/07/03 00:46:24;;;;;;;2.80;2.60;;;18.10;99.90;;;;;;4992968;28;20234;-66
2022/07/03 00:48:52;;;;;;;4.55;3.33;;;18.00;99.90;;;;;;4985662;28;20755;-66
2022/07/03 00:51:27;;;;;;;3.08;2.88;;;18.10;99.90;;;;;;4993308;28;20211;-65
2022/07/03 00:53:58;;;;;;;6.25;2.97;;;18.10;99.90;;;;;;4992681;28;20203;-66
2022/07/03 00:56:26;;;;;;;3.97;2.97;;;18.10;99.90;;;;;;4991436;28;20262;-66
2022/07/03 00:58:57;;;;;;;3.80;3.38;;;18.10;99.90;;;;;;4981862;28;20195;-66
2022/07/03 01:01:25;;;;;;;3.80;3.47;;;18.10;99.90;;;;;;4994411;28;20751;-66
2022/07/03 01:04:03;;;;;;;2.90;2.70;;;18.00;99.90;;;;;;4988891;28;20258;-66
2022/07/03 01:06:39;;;;;;;3.47;3.17;;;18.00;99.90;;;;;;4993835;28;20727;-66
2022/07/03 01:09:06;;;;;;;3.28;2.83;;;17.80;99.90;;;;;;4989771;28;20201;-66
2022/07/03 01:11:54;;;;;;;3.13;2.92;;;18.00;99.90;;;;;;4991927;28;20208;-66
2022/07/03 01:14:36;;;;;;;2.92;2.72;;;17.80;99.90;;;;;;4987770;28;20242;-66
2022/07/03 01:17:13;;;;;;;2.83;2.63;;;17.90;99.90;;;;;;4990419;28;20182;-66
2022/07/03 01:19:43;;;;;;;2.90;2.70;;;17.90;99.90;;;;;;4989361;28;20655;-66
2022/07/03 01:22:24;;;;;;;3.22;3.03;;;17.80;99.90;;;;;;4986795;28;20203;-66
2022/07/03 01:25:03;;;;;;;4.70;2.53;;;17.90;99.90;;;;;;4991802;28;20208;-66
2022/07/03 01:27:37;;;;;;;2.90;2.70;;;17.80;99.90;;;;;;4993200;28;20743;-68
2022/07/03 01:30:10;;;;;;;3.25;3.05;;;17.80;99.90;;;;;;4992018;28;20210;-66
2022/07/03 01:32:42;;;;;;;3.22;2.92;;;17.90;99.90;;;;;;4985239;28;20203;-66
2022/07/03 01:35:12;;;;;;;4.28;3.10;;;17.80;99.90;;;;;;4989393;28;20237;-66
2022/07/03 01:37:40;;;;;;;2.75;2.55;;;17.80;99.90;;;;;;4990315;28;20186;-66
2022/07/03 01:40:07;;;;;;;3.30;3.00;;;17.80;99.90;;;;;;4991537;28;20233;-66
2022/07/03 01:42:34;;;;;;;4.22;2.67;;;17.90;99.90;;;;;;4992381;28;20782;-66
2022/07/03 01:45:02;;;;;;;2.63;2.42;;;17.70;99.90;;;;;;4992738;28;20191;-66
2022/07/03 01:47:29;;;;;;;3.05;2.80;;;17.70;99.90;;;;;;4989877;28;20187;-66
2022/07/03 01:49:56;;;;;;;2.83;2.60;;;17.70;99.90;;;;;;4988107;28;20302;-66
2022/07/03 01:52:24;;;;;;;2.90;2.60;;;17.70;99.90;;;;;;4990167;28;20203;-66
2022/07/03 01:54:52;;;;;;;3.10;2.80;;;17.50;99.90;;;;;;4990543;28;20592;-66
2022/07/03 01:57:17;;;;;;;2.90;2.70;;;17.70;99.90;;;;;;4991688;28;20184;-66
2022/07/03 01:59:43;;;;;;;2.80;2.60;;;17.70;99.90;;;;;;4992837;28;20194;-66
2022/07/03 02:02:25;;;;;;;3.77;2.60;;;17.70;99.90;;;;;;4991433;28;20313;-66
2022/07/03 02:05:00;;;;;;;3.00;2.80;;;17.70;99.90;;;;;;4988165;28;20184;-66
2022/07/03 02:07:57;;;;;;;2.67;2.47;;;17.80;99.90;;;;;;4985925;28;20180;-66
2022/07/03 02:10:29;;;;;;;2.85;2.65;;;17.70;99.90;;;;;;4989451;28;20562;-66
2022/07/03 02:13:03;;;;;;;2.65;2.45;;;17.30;99.90;;;;;;4992178;28;20184;-66
2022/07/03 02:15:34;;;;;;;2.50;2.30;;;17.80;99.90;;;;;;4992597;28;20182;-66
2022/07/03 02:18:10;;;;;;;2.65;2.45;;;17.80;99.90;;;;;;4990164;28;20207;-66
2022/07/03 02:20:45;;;;;;;3.08;2.50;;;17.80;99.90;;;;;;4990069;28;20207;-66
2022/07/03 02:23:12;;;;;;;4.38;2.83;;;17.80;99.90;;;;;;4990366;28;20191;-66
2022/07/03 02:25:44;;;;;;;3.47;2.42;;;17.80;99.90;;;;;;4991261;28;20246;-66
2022/07/03 02:28:36;;;;;;;2.60;2.40;;;17.80;99.90;;;;;;4991748;28;20199;-66
2022/07/03 02:31:03;;;;;;;3.30;3.10;;;18.00;99.90;;;;;;4990131;28;20219;-66
2022/07/03 02:33:31;;;;;;;2.50;2.30;;;17.80;99.90;;;;;;4987874;28;20176;-66
2022/07/03 02:35:57;;;;;;;3.53;2.78;;;17.80;99.90;;;;;;4991891;28;20187;-65
2022/07/03 02:38:24;;;;;;;2.80;2.60;;;17.80;99.90;;;;;;4991804;28;20183;-66
2022/07/03 02:41:08;;;;;;;2.40;2.30;;;17.80;99.90;;;;;;4990435;28;20214;-66
2022/07/03 02:43:38;;;;;;;2.70;2.50;;;17.80;99.90;;;;;;4984442;28;20290;-66
2022/07/03 02:46:49;;;;;;;2.60;2.42;;;17.80;99.90;;;;;;4987330;28;20199;-66
2022/07/03 02:49:30;;;;;;;2.75;2.30;;;17.80;99.90;;;;;;4980971;28;20195;-66
2022/07/03 02:52:14;;;;;;;2.72;2.20;;;17.70;99.90;;;;;;4989905;28;20238;-66
2022/07/03 02:54:46;;;;;;;2.65;2.45;;;17.70;99.90;;;;;;4981764;28;20292;-66
2022/07/03 02:57:19;;;;;;;4.05;2.45;;;17.70;99.90;;;;;;4982993;28;20187;-68
2022/07/03 02:59:54;;;;;;;2.70;2.42;;;17.80;99.90;;;;;;4992195;28;20569;-66
2022/07/03 03:02:45;;;;;;;2.50;2.30;;;17.60;99.90;;;;;;4991425;28;20206;-66
2022/07/03 03:05:25;;;;;;;2.70;2.50;;;17.80;99.90;;;;;;4984964;28;20192;-66
2022/07/03 03:08:16;;;;;;;2.50;2.30;;;17.60;99.90;;;;;;4988425;28;20195;-66
2022/07/03 03:10:44;;;;;;;2.42;2.33;;;17.60;99.90;;;;;;4988578;28;20222;-66
2022/07/03 03:13:16;;;;;;;3.00;2.80;;;17.50;99.90;;;;;;4987596;28;20199;-66
2022/07/03 03:16:08;;;;;;;2.63;2.42;;;17.50;99.90;;;;;;4991164;28;20679;-66
2022/07/03 03:18:39;;;;;;;2.30;2.20;;;17.70;99.90;;;;;;4987570;28;20234;-66
2022/07/03 03:21:10;;;;;;;3.05;2.75;;;17.60;99.90;;;;;;4983442;28;20195;-66
2022/07/03 03:23:38;;;;;;;2.35;2.25;;;17.50;99.90;;;;;;4991847;28;20657;-66
2022/07/03 03:26:04;;;;;;;3.50;2.47;;;17.80;99.90;;;;;;4980018;28;20190;-66
2022/07/03 03:28:30;;;;;;;3.10;2.80;;;17.50;99.90;;;;;;4980502;28;20184;-66
2022/07/03 03:30:56;;;;;;;2.40;2.30;;;17.50;99.90;;;;;;5004457;28;20704;-66
2022/07/03 03:33:22;;;;;;;3.10;2.80;;;17.50;99.90;;;;;;4986249;28;20195;-66
2022/07/03 03:35:48;;;;;;;2.38;2.17;;;17.50;99.90;;;;;;4991355;28;20607;-66
2022/07/03 03:38:14;;;;;;;2.83;2.63;;;17.60;99.90;;;;;;4988388;28;20192;-66
2022/07/03 03:40:40;;;;;;;2.33;2.17;;;17.60;99.90;;;;;;4988225;28;20311;-66
2022/07/03 03:43:06;;;;;;;2.67;2.47;;;17.50;99.90;;;;;;4990148;28;20713;-66
2022/07/03 03:45:31;;;;;;;2.90;2.70;;;17.60;99.90;;;;;;4989952;28;20191;-66
2022/07/03 03:47:57;;;;;;;2.80;2.63;;;17.60;99.90;;;;;;4988987;28;20191;-66
2022/07/03 03:50:23;;;;;;;2.67;2.47;;;17.60;99.90;;;;;;4987597;28;20212;-66
2022/07/03 03:52:49;;;;;;;3.45;2.38;;;17.60;99.90;;;;;;4983482;28;20482;-66
2022/07/03 03:55:15;;;;;;;2.67;2.47;;;17.60;99.90;;;;;;4987607;28;20583;-66
2022/07/03 03:57:41;;;;;;;4.03;2.77;;;17.60;99.90;;;;;;4979823;28;20455;-66
2022/07/03 04:00:07;;;;;;;3.17;2.97;;;17.60;99.90;;;;;;4980322;28;20191;-66
2022/07/03 04:02:33;;;;;;;2.50;2.40;;;17.90;99.90;;;;;;4988488;28;20207;-66
2022/07/03 04:04:59;;;;;;;3.27;2.80;;;17.70;99.90;;;;;;4981167;28;20530;-66
2022/07/03 04:07:25;;;;;;;2.40;2.20;;;17.70;99.90;;;;;;4985772;28;20191;-66
2022/07/03 04:09:50;;;;;;;2.50;2.30;;;17.70;99.90;;;;;;4981415;28;20604;-66
2022/07/03 04:12:17;;;;;;;2.70;2.50;;;17.70;99.90;;;;;;4985931;28;20298;-66
2022/07/03 04:14:42;;;;;;;2.58;2.38;;;17.70;99.90;;;;;;4986176;28;20191;-66
2022/07/03 04:17:08;;;;;;;2.77;2.47;;;17.80;99.90;;;;;;4985017;28;20195;-66
2022/07/03 04:19:33;;;;;;;2.60;2.20;;;17.90;99.90;;;;;;4985043;28;20194;-66
2022/07/03 04:21:59;;;;;;;2.93;2.63;;;17.90;99.90;;;;;;4982251;28;20204;-66
2022/07/03 04:24:25;;;;;;;2.70;2.50;;;18.00;99.90;;;;;;4980535;28;20191;-66
2022/07/03 04:26:51;;;;;;;2.93;2.63;;;17.90;99.90;;;;;;4986002;28;20287;-66
2022/07/03 04:29:17;;;;;;;2.43;2.23;;;18.00;99.90;;;;;;4986262;28;20199;-66
2022/07/03 04:31:42;;;;;;;2.30;2.20;;;18.00;99.90;;;;;;4988097;28;20910;-66
2022/07/03 04:34:08;;;;;;;3.00;2.80;;;18.00;99.90;;;;;;4980545;28;20183;-66
2022/07/03 04:36:34;;;;;;;2.43;2.20;;;18.00;99.90;;;;;;4986891;28;20195;-66
2022/07/03 04:38:59;;;;;;;5.03;2.57;;;18.10;99.90;;;;;;4984567;28;20195;-66
2022/07/03 04:41:25;;;;;;;2.40;2.30;;;18.10;99.90;;;;;;4983210;28;20239;-66
2022/07/03 04:43:50;;;;;;;2.93;2.57;;;18.20;99.90;;;;;;4982559;28;20339;-66
2022/07/03 04:46:16;;;;;;;2.60;2.40;;;18.20;99.90;;;;;;4985109;28;20191;-66
2022/07/03 04:48:42;;;;;;;3.60;2.67;;;18.30;99.90;;;;;;4982897;28;20199;-66
2022/07/03 04:51:07;;;;;;;2.63;2.43;;;18.80;99.90;;;;;;4990203;28;20269;-66
2022/07/03 04:53:33;;;;;;;3.00;2.70;;;18.50;99.90;;;;;;4990198;28;20904;-66
2022/07/03 04:55:58;;;;;;;2.23;2.13;;;18.60;99.90;;;;;;4987088;28;20188;-66
2022/07/03 04:58:25;;;;;;;2.37;2.20;;;18.70;99.90;;;;;;4987976;28;20350;-66
2022/07/03 05:00:50;;;;;;;2.45;2.25;;;18.50;99.90;;;;;;4987849;28;20741;-66
2022/07/03 05:03:16;;;;;;;3.17;2.90;;;18.90;99.90;;;;;;4989300;28;20406;-66
2022/07/03 05:05:42;;;;;;;2.50;2.33;;;19.00;99.90;;;;;;4990243;28;20282;-66
2022/07/03 05:08:07;;;;;;;2.53;2.37;;;19.10;99.90;;;;;;4987409;28;20247;-68
2022/07/03 05:10:33;;;;;;;2.10;2.00;;;19.20;99.90;;;;;;4982242;28;20363;-64
2022/07/03 05:12:59;;;;;;;2.83;2.63;;;19.20;99.90;;;;;;4979960;28;20279;-69
2022/07/03 05:15:24;;;;;;;2.60;2.40;;;19.40;99.90;;;;;;4988439;28;20225;-65
2022/07/03 05:17:50;;;;;;;2.13;2.03;;;19.50;99.90;;;;;;4990302;28;20184;-69
2022/07/03 05:20:24;;;;;;;2.20;2.00;;;19.60;99.90;;;;;;4983825;28;20191;-63
2022/07/03 05:22:51;;;;;;;3.20;2.90;;;19.60;99.90;;;;;;4989721;28;20196;-68
2022/07/03 05:25:17;;;;;;;2.80;2.50;;;19.80;99.90;;;;;;4985161;28;20338;-64
2022/07/03 05:27:42;;;;;;;2.23;2.13;;;19.90;99.90;;;;;;4986196;28;20728;-67
2022/07/03 05:30:08;;;;;;;2.23;2.13;;;20.00;99.90;;;;;;4989957;28;20218;-68
2022/07/03 05:32:34;;;;;;;2.20;2.00;;;20.20;99.90;;;;;;4991195;28;20203;-67
2022/07/03 05:35:00;;;;;;;2.30;2.10;;;20.20;99.90;;;;;;4981856;28;20435;-66
2022/07/03 05:37:26;;;;;;;2.30;2.17;;;20.30;99.90;;;;;;4992961;28;20180;-65
2022/07/03 05:39:52;;;;;;;2.33;2.20;;;20.30;99.90;;;;;;4986605;28;20198;-63
2022/07/03 05:42:18;;;;;;;2.23;2.07;;;20.40;99.90;;;;;;4987803;28;20226;-63
2022/07/03 05:44:43;;;;;;;2.40;2.30;;;20.50;99.90;;;;;;4991268;28;20633;-62
2022/07/03 05:47:09;;;;;;;2.77;2.40;;;20.60;99.90;;;;;;4989872;28;20191;-62
2022/07/03 05:49:34;;;;;;;2.60;2.40;;;20.70;99.90;;;;;;4984146;28;20187;-62
2022/07/03 05:52:00;;;;;;;2.83;2.63;;;20.80;99.90;;;;;;4990296;28;20215;-65
2022/07/03 05:54:26;;;;;;;2.70;2.53;;;20.90;99.90;;;;;;4991883;28;20575;-65
2022/07/03 05:56:51;;;;;;;2.10;2.00;;;21.10;99.90;;;;;;4986243;28;20189;-65
2022/07/03 05:59:17;;;;;;;2.43;2.23;;;21.20;99.90;;;;;;4985101;28;20183;-66
2022/07/03 06:01:42;;;;;;;2.63;2.30;;;21.30;99.90;;;;;;4989563;28;20226;-66
2022/07/03 06:04:08;;;;;;;1.80;1.70;;;21.50;99.90;;;;;;4993752;28;20190;-63
2022/07/03 06:06:34;;;;;;;2.50;2.30;;;21.70;99.90;;;;;;4988535;28;20586;-64
2022/07/03 06:08:59;;;;;;;5.43;2.20;;;21.80;99.90;;;;;;4989635;28;20356;-64
2022/07/03 06:11:25;;;;;;;2.33;2.23;;;21.90;99.90;;;;;;4991220;28;20222;-67
2022/07/03 06:13:51;;;;;;;2.00;1.90;;;22.00;99.40;;;;;;4989815;28;20294;-67
2022/07/03 06:16:16;;;;;;;2.10;1.90;;;22.10;99.10;;;;;;4989369;28;20187;-65
2022/07/03 06:18:42;;;;;;;4.03;2.30;;;22.30;98.80;;;;;;4985896;28;20192;-64
2022/07/03 06:21:08;;;;;;;2.15;2.05;;;22.40;98.70;;;;;;4990243;28;20207;-64
2022/07/03 06:23:34;;;;;;;2.00;1.73;;;22.50;98.40;;;;;;4988500;28;20194;-63
2022/07/03 06:26:00;;;;;;;2.33;2.13;;;22.70;98.00;;;;;;4991413;28;20505;-63
2022/07/03 06:28:26;;;;;;;2.00;1.90;;;22.90;97.40;;;;;;4987014;28;20194;-65
2022/07/03 06:30:51;;;;;;;2.13;2.03;;;23.00;97.30;;;;;;4983953;28;20482;-63
2022/07/03 06:33:17;;;;;;;2.90;1.73;;;23.10;96.60;;;;;;4988798;28;20309;-64
2022/07/03 06:35:43;;;;;;;2.17;2.07;;;23.30;96.30;;;;;;4991296;28;20245;-59
2022/07/03 06:38:09;;;;;;;2.13;2.03;;;23.30;96.30;;;;;;4983640;28;20688;-59
2022/07/03 06:40:35;;;;;;;2.40;2.17;;;23.50;96.00;;;;;;4990524;28;20477;-59
2022/07/03 06:43:00;;;;;;;1.87;1.70;;;23.70;95.80;;;;;;4990257;28;20188;-61
2022/07/03 06:45:26;;;;;;;4.20;2.00;;;23.80;94.20;;;;;;4983731;28;20188;-63
2022/07/03 06:47:52;;;;;;;2.10;1.90;;;23.90;94.00;;;;;;4988728;28;20202;-60
2022/07/03 06:50:17;;;;;;;1.87;1.77;;;24.10;93.60;;;;;;4986385;28;20272;-60
2022/07/03 06:52:43;;;;;;;1.50;1.40;;;24.20;93.30;;;;;;4985739;28;20203;-63
2022/07/03 06:55:09;;;;;;;1.83;1.70;;;24.40;92.10;;;;;;4983157;28;20759;-62
2022/07/03 06:57:34;;;;;;;1.70;1.60;;;24.50;92.00;;;;;;4989062;28;20192;-60
2022/07/03 07:00:00;;;;;;;2.10;1.90;;;24.70;91.40;;;;;;4988154;28;20187;-61
2022/07/03 07:02:25;;;;;;;2.00;1.80;;;24.90;91.50;;;;;;4982024;28;20678;-60
2022/07/03 07:04:51;;;;;;;1.60;1.50;;;25.20;90.70;;;;;;4987741;28;20267;-62
2022/07/03 07:07:17;;;;;;;2.10;1.90;;;25.70;90.00;;;;;;4987499;28;20249;-60
2022/07/03 07:09:43;;;;;;;1.80;1.67;;;26.20;88.00;;;;;;4987464;28;20219;-60
2022/07/03 07:12:09;;;;;;;2.00;1.90;;;27.60;83.20;;;;;;4985052;28;20687;-60
2022/07/03 07:14:35;;;;;;;1.70;1.60;;;29.70;76.20;;;;;;4988242;28;20537;-62
2022/07/03 07:17:01;;;;;;;1.67;1.57;;;31.90;68.10;;;;;;4982252;28;20446;-60
2022/07/03 07:19:26;;;;;;;2.20;1.80;;;33.60;61.70;;;;;;4982827;28;20187;-61
2022/07/03 07:21:52;;;;;;;1.60;1.50;;;35.00;56.60;;;;;;4988971;28;20583;-61
2022/07/03 07:24:18;;;;;;;1.73;1.63;;;36.10;52.10;;;;;;4988797;28;20199;-60
2022/07/03 07:26:43;;;;;;;1.93;1.80;;;37.20;49.20;;;;;;4989455;28;20187;-61
2022/07/03 07:29:09;;;;;;;1.63;1.53;;;37.90;46.90;;;;;;4982227;28;20199;-60
2022/07/03 07:31:35;;;;;;;1.40;1.30;;;38.90;43.80;;;;;;4983238;28;20768;-60
2022/07/03 07:34:04;;;;;;;1.77;1.67;;;39.20;42.20;;;;;;4987037;28;20275;-60
2022/07/03 07:36:29;;;;;;;4.63;1.60;;;39.90;40.10;;;;;;4986376;28;20557;-61
2022/07/03 07:38:55;;;;;;;1.47;1.37;;;40.50;38.90;;;;;;4989890;28;20435;-61
2022/07/03 07:41:21;;;;;;;1.80;1.60;;;40.10;38.30;;;;;;4988603;28;20290;-61
2022/07/03 07:43:47;;;;;;;1.80;1.70;;;39.90;38.30;;;;;;4983974;28;20191;-61
2022/07/03 07:46:12;;;;;;;2.10;1.53;;;40.70;37.50;;;;;;4984794;28;20187;-59
2022/07/03 07:48:38;;;;;;;1.70;1.57;;;40.10;37.80;;;;;;4979413;28;20187;-60
2022/07/03 07:51:04;;;;;;;1.50;1.40;;;40.60;36.20;;;;;;4986998;28;20793;-60
2022/07/03 07:53:29;;;;;;;1.50;1.30;;;41.00;34.30;;;;;;4990217;28;20459;-59
2022/07/03 07:55:55;;;;;;;1.40;1.30;;;41.60;33.10;;;;;;4983882;28;20223;-60
2022/07/03 07:58:22;;;;;;;1.10;1.00;;;41.60;31.90;;;;;;4985264;28;20219;-67
2022/07/03 08:06:16;;;;;;;1.23;1.13;;;40.90;33.50;;;;;;4984473;28;20417;-69
2022/07/03 08:08:42;;;;;;;1.47;1.37;;;42.00;31.80;;;;;;4990879;28;20434;-73
2022/07/03 08:11:08;;;;;;;1.30;1.20;;;41.70;32.20;;;;;;4989540;28;20481;-70
2022/07/03 08:13:33;;;;;;;1.40;1.30;;;41.50;32.30;;;;;;4991198;28;20211;-70
2022/07/03 08:15:59;;;;;;;1.50;1.40;;;42.10;32.10;;;;;;4983442;28;20191;-74
2022/07/03 08:18:25;;;;;;;2.00;1.37;;;41.00;32.90;;;;;;4986262;28;20184;-70
2022/07/03 08:20:50;;;;;;;1.50;1.40;;;41.20;32.60;;;;;;4982438;28;20223;-70
2022/07/03 08:23:16;;;;;;;1.40;1.30;;;40.70;32.50;;;;;;4988843;28;20207;-70
2022/07/03 08:25:42;;;;;;;2.10;1.67;;;40.80;32.30;;;;;;4990106;28;20188;-71
2022/07/03 08:28:07;;;;;;;1.40;1.20;;;42.60;31.40;;;;;;4989455;28;20649;-70
2022/07/03 08:30:33;;;;;;;1.20;1.10;;;43.30;29.90;;;;;;4989703;28;20211;-69
2022/07/03 08:32:59;;;;;;;1.47;1.10;;;41.30;30.00;;;;;;4987022;28;20231;-70
2022/07/03 08:35:25;;;;;;;1.87;1.20;;;42.70;29.50;;;;;;4984906;28;20251;-67
2022/07/03 08:37:51;;;;;;;2.03;1.50;;;41.70;29.80;;;;;;4987211;28;20190;-66
2022/07/03 08:40:19;;;;;;;1.67;1.57;;;41.70;28.60;;;;;;4986456;28;20836;-67
2022/07/03 08:43:04;;;;;;;1.27;1.17;;;41.00;29.00;;;;;;4984842;28;20837;-69
2022/07/03 08:45:30;;;;;;;1.60;1.50;;;41.90;29.00;;;;;;4988368;28;20819;-67
2022/07/03 08:47:58;;;;;;;1.30;1.20;;;42.10;29.00;;;;;;4984779;28;20467;-67
2022/07/03 08:50:24;;;;;;;1.50;1.40;;;41.50;29.30;;;;;;4992091;28;20454;-67
2022/07/03 08:52:51;;;;;;;1.33;1.17;;;42.20;27.90;;;;;;4985290;28;20462;-68
2022/07/03 08:55:18;;;;;;;1.33;1.20;;;43.20;26.60;;;;;;4994142;28;20430;-68
2022/07/03 08:57:45;;;;;;;2.00;1.20;;;43.20;27.10;;;;;;4988634;28;20431;-68
2022/07/03 09:00:14;;;;;;;2.07;1.30;;;42.50;27.60;;;;;;4994060;28;21007;-67
2022/07/03 09:02:43;;;;;;;3.67;1.70;;;42.70;28.10;;;;;;4993428;28;20442;-67
2022/07/03 09:05:13;;;;;;;2.00;1.77;;;42.70;28.30;;;;;;4989361;28;20435;-67
2022/07/03 09:07:41;;;;;;;1.33;1.23;;;43.20;27.60;;;;;;4993979;28;20450;-67
2022/07/03 09:10:09;;;;;;;1.30;1.20;;;43.70;26.70;;;;;;4993393;28;20450;-67
2022/07/03 09:12:35;;;;;;;3.87;2.27;;;43.30;25.50;;;;;;4990099;28;20454;-67
2022/07/03 09:15:03;;;;;;;1.40;1.00;;;42.90;25.50;;;;;;4989964;28;20434;-68
2022/07/03 09:17:30;;;;;;;1.07;1.00;;;43.40;25.70;;;;;;4990293;28;20518;-67
2022/07/03 09:19:58;;;;;;;1.00;1.00;;;43.40;25.40;;;;;;4990068;28;20431;-67
2022/07/03 09:22:35;;;;;;;1.40;1.00;;;43.60;25.40;;;;;;4991326;28;20451;-67
2022/07/03 09:25:16;;;;;;;1.10;1.03;;;44.00;24.90;;;;;;4985316;28;20442;-67
2022/07/03 09:28:00;;;;;;;0.93;0.93;;;43.80;24.10;;;;;;4988443;28;20435;-67
2022/07/03 09:30:26;;;;;;;1.77;1.03;;;42.80;24.70;;;;;;4989360;28;20837;-67
2022/07/03 09:32:52;;;;;;;1.03;0.97;;;41.90;25.40;;;;;;4993049;28;20446;-68
2022/07/03 09:35:25;;;;;;;2.07;1.10;;;42.30;25.70;;;;;;4993297;28;20191;-68
2022/07/03 09:38:02;;;;;;;1.13;1.03;;;43.00;25.00;;;;;;4993369;28;20542;-67
2022/07/03 09:40:47;;;;;;;2.10;1.10;;;43.30;24.90;;;;;;4992987;28;20513;-67
2022/07/03 09:43:13;;;;;;;1.10;1.00;;;43.70;24.30;;;;;;4983974;28;20512;-67
2022/07/03 09:45:51;;;;;;;1.10;1.00;;;44.20;24.40;;;;;;4992690;28;20525;-68
2022/07/03 09:48:29;;;;;;;2.20;1.43;;;42.90;24.40;;;;;;4992853;28;20195;-68
2022/07/03 09:51:17;;;;;;;1.60;1.40;;;43.80;24.70;;;;;;4984978;28;20512;-67
2022/07/03 09:53:51;;;;;;;1.30;1.20;;;44.00;25.00;;;;;;4992783;28;20452;-67
2022/07/03 09:56:21;;;;;;;1.50;1.10;;;43.00;25.10;;;;;;4993236;28;20870;-68
2022/07/03 09:59:07;;;;;;;1.20;1.10;;;42.90;25.80;;;;;;4979818;28;20453;-68
2022/07/03 10:01:35;;;;;;;1.57;1.07;;;43.50;25.20;;;;;;4995113;28;20558;-67
2022/07/03 10:04:10;;;;;;;2.63;1.20;;;42.10;25.20;;;;;;4991687;28;20522;-67
2022/07/03 10:07:00;;;;;;;1.30;1.07;;;42.20;25.70;;;;;;4992605;28;20438;-68
2022/07/03 10:09:29;;;;;;;1.67;1.20;;;42.20;25.90;;;;;;4980884;28;20438;-68
2022/07/03 10:11:56;;;;;;;1.20;1.10;;;42.20;26.50;;;;;;4993151;28;20560;-67
2022/07/03 10:14:24;;;;;;;1.60;1.43;;;42.20;26.90;;;;;;4993129;28;20489;-68
2022/07/03 10:16:50;;;;;;;1.83;1.37;;;43.20;26.30;;;;;;4989977;28;20446;-68
2022/07/03 10:19:21;;;;;;;1.30;1.20;;;43.40;26.20;;;;;;4985463;28;20432;-68
2022/07/03 10:21:56;;;;;;;1.30;1.20;;;43.30;26.00;;;;;;4990972;28;20450;-67
2022/07/03 10:24:27;;;;;;;1.30;1.20;;;43.50;26.10;;;;;;4992213;28;20441;-68
2022/07/03 10:26:54;;;;;;;1.43;1.30;;;43.50;25.90;;;;;;4997153;28;20453;-68
2022/07/03 10:29:22;;;;;;;2.27;1.87;;;43.20;25.40;;;;;;4992622;28;20511;-67
2022/07/03 10:31:47;;;;;;;1.30;1.20;;;42.90;26.30;;;;;;4991971;28;20506;-67
2022/07/03 10:34:18;;;;;;;1.27;1.20;;;42.40;26.20;;;;;;4985181;28;20863;-67
2022/07/03 10:36:46;;;;;;;1.50;1.10;;;42.70;26.50;;;;;;4989992;28;20187;-67
2022/07/03 10:39:36;;;;;;;1.50;1.40;;;42.20;26.80;;;;;;4989592;28;20863;-67
2022/07/03 10:45:08;;;;;;;1.53;1.43;;;42.10;27.00;;;;;;4990700;28;20791;-67
2022/07/03 10:47:41;;;;;;;1.40;1.30;;;41.00;27.80;;;;;;4991544;28;20438;-67
2022/07/03 10:50:21;;;;;;;1.50;1.40;;;41.00;27.70;;;;;;4985438;28;20842;-67
2022/07/03 10:52:48;;;;;;;1.50;1.20;;;40.90;28.20;;;;;;4991416;28;20500;-68
2022/07/03 10:55:15;;;;;;;1.80;1.70;;;42.50;27.60;;;;;;4991687;28;20438;-67
2022/07/03 10:58:02;;;;;;;1.50;1.40;;;41.80;27.60;;;;;;4990072;28;20514;-67
2022/07/03 11:00:27;;;;;;;2.20;1.30;;;40.80;27.60;;;;;;4980918;28;20442;-67
2022/07/03 11:02:53;;;;;;;2.87;2.57;;;41.50;27.50;;;;;;4992748;28;21054;-68
2022/07/03 11:05:35;;;;;;;1.47;1.30;;;41.20;27.30;;;;;;4981836;28;20195;-68
2022/07/03 11:08:01;;;;;;;1.33;1.27;;;41.00;28.00;;;;;;4989816;28;20270;-68
2022/07/03 11:10:26;;;;;;;1.40;1.30;;;40.70;28.10;;;;;;4992019;28;20963;-68
2022/07/03 11:12:59;;;;;;;1.43;1.20;;;41.60;28.00;;;;;;4990097;28;20191;-68
2022/07/03 11:15:37;;;;;;;1.27;1.17;;;41.40;27.40;;;;;;4991345;28;20740;-68
2022/07/03 11:18:06;;;;;;;1.20;1.10;;;41.80;27.50;;;;;;4985303;28;20990;-68
2022/07/03 11:20:39;;;;;;;3.00;1.57;;;40.90;27.50;;;;;;4989311;28;20484;-68
2022/07/03 11:23:29;;;;;;;1.70;1.60;;;41.60;27.40;;;;;;4990993;28;20810;-68
2022/07/03 11:25:59;;;;;;;1.53;1.43;;;42.10;26.80;;;;;;4983393;28;20451;-68
2022/07/03 11:28:33;;;;;;;1.57;1.47;;;41.60;26.80;;;;;;4990474;28;20470;-68
2022/07/03 11:31:13;;;;;;;1.60;1.50;;;40.30;27.90;;;;;;4990708;28;21094;-68
2022/07/03 11:33:45;;;;;;;2.70;1.70;;;41.10;27.90;;;;;;4982038;28;20443;-67
2022/07/03 11:36:16;;;;;;;1.33;1.23;;;40.20;28.70;;;;;;4987504;28;20430;-69
2022/07/03 11:39:08;;;;;;;2.47;1.50;;;39.10;29.30;;;;;;4978028;28;20467;-69
2022/07/03 11:41:34;;;;;;;3.10;2.90;;;37.50;30.50;;;;;;4981055;28;20482;-69
2022/07/03 11:44:05;;;;;;;1.67;1.57;;;36.80;31.90;;;;;;4982190;28;20439;-69
2022/07/03 11:46:34;;;;;;;1.60;1.50;;;37.10;31.80;;;;;;4981022;28;20196;-70
2022/07/03 11:49:14;;;;;;;1.40;1.30;;;37.20;32.20;;;;;;4984728;28;20481;-69
2022/07/03 11:51:53;;;;;;;1.50;1.40;;;37.20;32.20;;;;;;4987034;28;20469;-69
2022/07/03 11:54:19;;;;;;;2.50;2.30;;;36.90;32.00;;;;;;4987426;28;21053;-69
2022/07/03 11:56:45;;;;;;;2.03;1.40;;;36.70;32.40;;;;;;4987265;28;20439;-69
2022/07/03 11:59:11;;;;;;;1.40;1.30;;;35.40;33.80;;;;;;4985217;28;20267;-66
2022/07/03 12:01:38;;;;;;;1.20;1.10;;;35.00;34.90;;;;;;4986541;28;20210;-69
2022/07/03 12:04:23;;;;;;;1.30;1.20;;;34.50;35.70;;;;;;4984514;28;20475;-70
2022/07/03 12:06:52;;;;;;;1.50;1.40;;;34.10;35.90;;;;;;4985575;28;20442;-68
2022/07/03 12:09:26;;;;;;;1.33;1.23;;;33.70;36.50;;;;;;4989412;28;20962;-68
2022/07/03 12:11:59;;;;;;;1.63;1.53;;;32.80;37.60;;;;;;4985926;28;20559;-71
2022/07/03 12:14:33;;;;;;;1.80;1.30;;;32.70;39.30;;;;;;4991740;28;20932;-68
2022/07/03 12:16:59;;;;;;;2.40;1.60;;;32.60;39.00;;;;;;4991366;28;20844;-69
2022/07/03 12:19:24;;;;;;;1.73;1.50;;;32.40;39.10;;;;;;4982584;28;20533;-71
2022/07/03 12:21:50;;;;;;;1.67;1.57;;;32.00;39.70;;;;;;4990174;28;20208;-66
2022/07/03 12:24:16;;;;;;;1.83;1.43;;;31.70;40.70;;;;;;4991978;28;20222;-68
2022/07/03 12:26:42;;;;;;;1.70;1.60;;;31.60;40.90;;;;;;4986952;28;20459;-64
2022/07/03 12:29:10;;;;;;;1.30;1.20;;;31.70;41.10;;;;;;4991101;28;20220;-69
2022/07/03 12:31:40;;;;;;;2.03;1.50;;;31.70;40.90;;;;;;4990650;28;20224;-70
2022/07/03 12:34:06;;;;;;;1.20;1.10;;;31.50;40.80;;;;;;4989038;28;20479;-72
2022/07/03 12:36:31;;;;;;;1.70;1.60;;;31.40;40.50;;;;;;4990746;28;20436;-71
2022/07/03 12:38:59;;;;;;;1.53;1.43;;;31.40;42.60;;;;;;4989856;28;20447;-72
2022/07/03 12:41:25;;;;;;;2.10;1.90;;;31.40;40.80;;;;;;4992075;28;20223;-73
2022/07/03 12:43:52;;;;;;;1.40;1.20;;;31.50;42.00;;;;;;4986951;28;21067;-74
2022/07/03 12:46:26;;;;;;;3.13;1.70;;;31.50;40.60;;;;;;4993027;28;20432;-74
2022/07/03 12:48:54;;;;;;;1.30;1.20;;;31.30;39.90;;;;;;4989211;28;20474;-72
2022/07/03 12:51:41;;;;;;;1.67;1.37;;;31.10;40.20;;;;;;4991731;28;20487;-72
2022/07/03 12:54:08;;;;;;;3.00;1.40;;;30.90;41.30;;;;;;4970883;28;20628;-69
2022/07/03 12:56:34;;;;;;;1.50;1.40;;;30.90;41.50;;;;;;4991941;28;20462;-70
2022/07/03 12:59:18;;;;;;;1.93;1.83;;;30.70;41.20;;;;;;4993112;28;20592;-71
2022/07/03 13:02:03;;;;;;;1.43;1.30;;;30.60;42.30;;;;;;4991724;28;20465;-72
2022/07/03 13:04:37;;;;;;;2.37;1.53;;;30.70;41.70;;;;;;4988736;28;20440;-71
2022/07/03 13:07:07;;;;;;;2.40;2.00;;;30.90;42.10;;;;;;4990404;28;21264;-70
2022/07/03 13:09:36;;;;;;;2.60;2.00;;;31.10;42.60;;;;;;4991006;28;20544;-66